New Stuyahok, Alaska
Current Conditions -  °F | °C
As of 7:56 PM on Saturday 22 Nov 2014 (Local Time) from PANW Reporting Station
Clear Clear  
Wind Chill:   Ceiling: Unl
Heat Index: 20°   Visibility: 10mi
Dew Point: 15°   Wind: 12mph
Humidity: 81%   Direction: 360°N
Pressure: 29.14"   Gusts: NA
Location:  59.45°N, 157.31°W
Report Text: PANW 230456Z AUTO 36010KT 10SM CLR M07/M09 A2914 RMK AO2 TSNO T10661094 SLP849 $
Loading
Personal Weather Stations






























Interactive Weather Map New forecast layout! Learn more

10-Day Weather Forecast

Advertisements
Track Severe Weather on mobile